Date,TemperatureHighF,TemperatureAvgF,TemperatureLowF,DewpointHighF,DewpointAvgF,DewpointLowF,HumidityHigh,HumidityAvg,HumidityLow,PressureMaxIn,PressureMinIn,WindSpeedMaxMPH,WindSpeedAvgMPH,GustSpeedMaxMPH,PrecipitationSumIn
2014-1-1,33.1,28.6,22.2,21.0,15.2,8.0,67,58,47,30.41,30.26,11,1,11,0.00
2014-1-2,31.8,26.5,17.7,26.0,22.6,15.0,92,85,66,30.25,29.65,10,4,16,0.00
2014-1-3,18.2,13.0,8.3,15.0,6.6,-3.0,90,77,57,30.46,29.61,11,3,17,0.00
2014-1-4,26.7,15.5,3.9,15.0,6.8,-3.0,89,70,43,30.53,30.31,6,1,10,0.00
2014-1-5,50.6,31.6,13.6,50.0,29.8,12.0,98,93,88,30.32,29.77,5,1,13,0.15
2014-1-6,55.0,43.9,22.9,55.0,38.6,8.0,98,83,51,29.76,29.41,15,3,22,0.33
2014-1-7,21.3,9.1,5.0,6.0,-8.4,-13.0,52,45,36,30.39,29.70,11,5,21,0.00
2014-1-8,23.1,15.6,8.4,5.0,0.3,-6.0,62,52,43,30.56,30.39,6,1,12,0.00
2014-1-9,32.7,25.0,20.9,17.0,11.6,5.0,78,58,39,30.65,30.50,4,0,8,0.00
2014-1-10,37.5,32.3,22.5,37.0,28.6,17.0,96,86,72,30.59,30.21,0,0,2,0.12
2014-1-11,55.5,51.0,37.7,55.0,50.4,37.0,98,97,95,30.21,29.35,10,2,23,0.67
2014-1-12,50.3,43.9,35.5,50.0,32.5,28.0,98,66,48,30.07,29.40,10,3,17,0.01
2014-1-13,51.5,41.8,29.4,42.0,36.0,27.0,93,80,67,30.16,29.91,16,2,16,0.00
2014-1-14,47.9,45.5,40.8,47.0,43.8,40.0,97,94,86,29.91,29.66,4,0,9,0.62
2014-1-15,43.5,38.7,33.6,43.0,37.6,33.0,98,96,89,30.01,29.84,4,0,8,0.01
2014-1-16,40.5,37.9,30.2,39.0,34.0,28.0,97,86,76,29.95,29.84,5,0,9,0.00
2014-1-17,45.7,35.6,26.3,36.0,31.2,25.0,96,85,67,30.00,29.88,7,1,13,0.00
2014-1-18,41.4,35.7,28.6,37.0,30.5,20.0,95,82,67,29.87,29.65,7,2,15,0.20
2014-1-19,36.8,31.0,24.8,27.0,20.7,16.0,74,66,57,29.83,29.66,9,3,19,0.00
2014-1-20,47.2,39.3,32.7,31.0,26.4,19.0,74,61,46,29.88,29.57,11,3,21,0.00
2014-1-21,32.0,20.2,11.9,19.0,13.2,9.0,89,76,51,29.99,29.81,9,2,15,0.00
2014-1-22,17.8,11.2,5.2,8.0,1.3,-4.0,86,65,50,29.99,29.76,14,3,18,0.00
2014-1-23,21.1,14.0,7.4,7.0,2.0,-2.0,70,59,47,30.29,29.99,9,2,14,0.00
2014-1-24,20.7,15.1,9.9,6.0,0.9,-2.0,62,54,41,30.38,30.11,11,3,20,0.00
2014-1-25,30.0,25.4,19.4,24.0,14.9,6.0,92,66,50,30.10,29.45,13,4,24,0.00
2014-1-26,35.0,22.8,16.8,28.0,9.5,-1.0,81,58,42,29.91,29.48,12,3,19,0.00
2014-1-27,45.2,35.1,20.9,35.0,22.5,-1.0,89,63,32,30.07,29.62,8,2,16,0.00
2014-1-28,20.5,17.0,12.7,7.0,-3.0,-6.0,67,41,33,30.37,30.07,8,1,15,0.00
2014-1-29,24.8,18.4,14.4,12.0,4.1,-1.0,86,56,35,30.29,30.09,11,2,14,0.00
2014-1-30,30.0,21.3,11.6,21.0,8.7,1.0,87,60,40,30.46,30.20,5,0,10,0.00
2014-1-31,42.4,33.0,25.1,21.0,16.9,14.0,80,53,34,30.23,30.10,6,1,10,0.00
2014-2-1,45.8,36.2,29.9,32.0,25.8,21.0,92,68,45,30.34,30.02,4,0,7,0.00
2014-2-2,57.3,42.5,31.4,40.0,36.3,29.0,96,80,51,30.08,29.91,6,0,7,0.00
2014-2-3,42.3,32.7,27.1,37.0,30.8,24.0,96,92,80,30.31,30.05,4,0,10,0.10
2014-2-4,35.8,28.1,19.4,27.0,23.7,17.0,91,83,67,30.46,30.26,0,0,0,0.25
2014-2-5,34.1,32.0,29.5,33.0,30.3,27.0,95,93,86,30.25,29.62,8,0,11,0.52
2014-2-6,30.1,26.0,22.6,27.0,19.9,17.0,89,78,61,30.28,29.96,5,1,11,0.00
2014-2-7,33.9,28.0,22.5,20.0,16.9,12.0,82,64,50,30.33,30.21,9,2,11,0.00
2014-2-8,29.1,24.9,19.2,16.0,9.6,5.0,66,53,39,30.34,30.14,3,0,15,0.00
2014-2-9,30.8,24.9,19.2,25.0,14.5,8.0,92,66,47,30.19,29.99,3,0,6,0.00
2014-2-10,29.2,24.2,19.6,22.0,12.8,9.0,89,63,47,30.27,29.99,7,2,14,0.00
2014-2-11,26.3,20.4,14.7,9.0,7.3,5.0,71,58,46,30.47,30.28,6,1,11,0.00
2014-2-12,25.8,19.2,10.9,22.0,8.6,3.0,84,64,49,30.57,30.28,4,1,10,0.00
2014-2-13,33.7,31.8,26.1,33.0,30.6,22.0,97,95,85,30.28,28.99,11,3,21,0.00
2014-2-14,40.4,35.0,26.9,33.0,28.3,24.0,97,78,59,29.78,28.99,11,3,21,0.31
2014-2-15,38.0,31.3,26.6,30.0,27.2,18.0,95,85,64,29.79,29.54,8,2,18,0.01
2014-2-16,30.1,24.9,20.8,18.0,12.5,-99.9,71,61,50,30.08,29.71,11,-8,17,0.00
2014-2-17,32.7,23.3,17.0,15.0,7.9,3.0,75,54,31,30.37,30.09,7,1,14,0.00
2014-2-18,41.2,33.0,22.9,38.0,26.1,11.0,96,77,54,30.33,29.94,8,1,14,0.18
2014-2-19,45.4,37.5,26.2,43.0,34.6,23.0,95,89,77,30.11,29.69,6,1,13,0.35
2014-2-20,49.7,40.5,30.1,37.0,31.0,26.0,94,71,44,30.25,29.98,3,1,12,0.02
2014-2-21,49.6,41.0,34.6,49.0,40.1,33.0,98,96,91,30.03,29.67,8,1,17,0.08
2014-2-22,55.5,42.6,32.5,35.0,30.2,23.0,97,66,30,30.05,29.92,14,2,21,0.00
2014-2-23,55.9,44.8,31.1,39.0,31.8,28.0,97,64,36,30.02,29.83,4,0,10,0.00
2014-2-24,43.6,35.2,26.6,35.0,19.2,8.0,89,55,34,30.08,29.80,8,3,22,0.02
2014-2-25,33.8,27.3,20.3,16.0,12.3,8.0,68,54,44,30.09,29.92,6,2,14,0.00
2014-2-26,31.3,25.1,16.7,26.0,12.2,-2.0,89,60,34,29.98,29.81,6,2,14,0.00
2014-2-27,33.1,23.1,12.5,23.0,6.9,-12.0,76,52,28,30.09,29.62,13,3,19,0.00
2014-2-28,25.0,16.6,9.1,5.0,-4.0,-13.0,65,41,30,30.44,30.10,7,1,20,0.01
2014-3-1,38.5,27.7,14.2,31.0,16.5,4.0,88,64,45,30.43,30.16,8,1,13,0.00
2014-3-2,41.2,36.0,30.9,29.0,25.0,20.0,86,65,51,30.15,29.98,7,1,8,0.00
2014-3-3,33.1,21.7,16.6,21.0,7.6,0.0,86,56,41,30.33,29.99,10,2,16,0.00
2014-3-4,30.9,21.3,11.7,17.0,6.6,0.0,68,54,31,30.42,30.25,4,1,8,0.00
2014-3-5,39.1,30.4,21.9,18.0,14.3,10.0,78,53,31,30.43,30.21,7,1,13,0.00
2014-3-6,32.5,24.4,16.6,13.0,8.6,3.0,65,52,36,30.63,30.44,7,2,13,0.00
2014-3-7,34.1,30.8,25.1,30.0,23.8,13.0,85,75,61,30.47,29.90,6,1,10,0.00
2014-3-8,58.3,44.6,29.9,33.0,30.2,27.0,90,61,36,29.90,29.75,8,1,15,0.00
2014-3-9,44.5,39.9,35.1,30.0,19.9,12.0,70,46,28,30.01,29.88,9,2,15,0.00
2014-3-10,52.0,41.6,37.2,36.0,26.8,13.0,83,57,36,29.94,29.62,8,1,11,0.00
2014-3-11,66.5,51.8,39.3,39.0,35.8,33.0,82,57,31,29.70,29.56,6,1,12,0.00
2014-3-12,57.6,48.0,38.7,49.0,43.1,36.0,96,83,71,29.68,29.01,10,2,15,0.27
2014-3-13,37.5,24.3,18.0,34.0,7.0,-2.0,87,50,27,30.07,29.11,14,5,25,0.00
2014-3-14,43.2,31.1,18.8,33.0,13.7,-99.9,80,51,38,30.23,29.93,16,-8,18,0.00
2014-3-15,59.9,49.1,39.2,36.0,30.4,23.0,85,53,28,29.99,29.76,12,3,22,0.02
2014-3-16,44.0,34.9,29.8,26.0,12.1,6.0,54,39,29,30.19,29.99,7,2,13,0.00
2014-3-17,33.5,28.3,24.2,8.0,5.2,1.0,49,38,28,30.13,30.03,7,2,14,0.00
2014-3-18,44.4,32.0,23.4,27.0,13.0,-99.9,79,52,27,30.30,30.12,14,-30,14,0.00
2014-3-19,44.9,36.8,26.9,44.0,31.8,24.0,95,82,66,30.32,29.84,13,3,18,0.56
2014-3-20,54.6,47.0,40.7,43.0,33.9,24.0,97,65,37,29.89,29.72,18,3,18,0.12
2014-3-21,52.4,43.4,35.4,25.0,22.3,20.0,62,44,29,30.06,29.89,10,3,17,0.00
2014-3-22,64.9,48.6,33.2,41.0,31.5,23.0,77,55,28,30.06,29.75,12,2,17,0.00
2014-3-23,43.7,38.2,28.2,27.0,19.1,8.0,65,47,27,30.10,29.96,9,2,13,0.00
2014-3-24,35.7,27.9,20.6,9.0,6.4,4.0,52,41,28,30.24,30.09,13,2,14,0.00
2014-3-25,40.3,31.1,19.4,20.0,14.5,8.0,70,51,34,30.17,29.84,8,1,12,0.00
2014-3-26,37.2,32.3,24.2,23.0,11.6,1.0,77,44,28,30.20,29.71,16,5,25,0.00
2014-3-27,40.9,31.7,22.3,28.0,13.9,4.0,70,50,22,30.42,30.22,16,3,18,0.00
2014-3-28,51.6,45.2,36.1,46.0,39.7,28.0,91,81,70,30.28,29.98,7,2,15,0.00
2014-3-29,47.9,45.3,40.2,46.0,43.7,39.0,97,93,84,30.18,29.69,7,2,14,2.12
2014-3-30,53.9,46.5,38.8,53.0,45.6,38.0,98,96,93,29.68,29.45,12,3,16,1.01
2014-3-31,53.7,41.6,33.0,38.0,34.2,28.0,96,77,51,30.06,29.64,11,3,17,0.33
2014-4-1,59.3,44.2,34.4,37.0,31.5,28.0,80,63,39,30.12,29.98,6,1,12,0.00
2014-4-2,52.7,43.5,37.8,44.0,39.8,35.0,95,87,71,30.15,30.05,6,0,8,0.02
2014-4-3,64.6,50.0,38.4,42.0,34.5,25.0,96,61,25,30.13,30.00,4,1,9,0.00
2014-4-4,44.7,42.0,39.9,42.0,37.8,34.0,95,85,69,30.10,29.73,13,3,25,0.06
2014-4-5,56.5,47.0,39.3,44.0,34.3,24.0,96,65,38,30.06,29.70,12,3,21,0.04
2014-4-6,59.9,44.8,35.5,35.0,25.9,20.0,83,51,25,30.23,30.06,6,2,11,0.00
2014-4-7,51.3,44.7,36.4,48.0,39.3,29.0,96,82,44,30.22,29.71,10,2,20,0.46
2014-4-8,66.9,54.7,48.4,58.0,45.9,35.0,98,76,44,29.69,29.39,12,3,21,0.29
2014-4-9,61.5,51.1,38.5,37.0,31.1,18.0,84,50,28,30.01,29.61,10,2,20,0.00
2014-4-10,56.5,47.8,32.2,40.0,28.1,17.0,73,49,30,30.23,30.03,13,3,18,0.00
2014-4-11,74.4,58.6,46.9,52.0,45.4,38.0,87,64,38,30.05,29.94,6,1,13,0.00
2014-4-12,70.3,57.8,47.7,52.0,43.6,34.0,91,64,29,30.22,29.99,8,1,13,0.00
2014-4-13,69.8,57.9,46.5,55.0,50.5,44.0,93,77,59,30.21,30.00,11,2,19,0.00
2014-4-14,69.2,58.7,52.2,57.0,53.1,50.0,94,82,61,30.04,29.88,18,4,22,0.00
2014-4-15,57.6,52.5,34.8,57.0,51.5,33.0,98,96,91,29.89,29.55,11,4,22,0.85
2014-4-16,47.5,38.7,30.5,33.0,22.3,18.0,95,55,34,30.56,29.88,11,3,18,0.13
2014-4-17,48.2,40.5,33.9,33.0,27.8,21.0,76,61,46,30.72,30.57,10,2,14,0.00
2014-4-18,49.2,40.5,32.1,36.0,32.0,28.0,87,72,57,30.61,30.27,4,1,9,0.00
2014-4-19,66.3,52.7,37.6,40.0,32.9,25.0,92,54,24,30.33,30.22,7,1,14,0.00
2014-4-20,55.7,49.3,39.8,35.0,30.2,27.0,66,49,35,30.49,30.33,10,2,16,0.00
2014-4-21,64.3,49.6,34.1,43.0,36.1,28.0,87,63,38,30.32,29.89,4,1,8,0.00
2014-4-22,65.1,54.3,44.2,51.0,47.2,42.0,94,78,56,29.88,29.50,10,2,16,0.00
2014-4-23,60.5,52.8,44.8,50.0,39.7,31.0,93,63,43,29.80,29.47,13,4,27,0.00
2014-4-24,63.1,51.5,41.4,32.0,20.9,13.0,65,34,15,30.00,29.80,12,3,19,0.00
2014-4-25,62.0,51.2,38.3,41.0,28.8,20.0,74,44,27,30.04,29.79,5,1,12,0.00
2014-4-26,66.4,51.0,44.2,50.0,44.8,42.0,95,81,41,29.88,29.70,10,2,14,0.72
2014-4-27,58.7,51.6,42.8,45.0,38.3,35.0,94,63,43,30.11,29.86,8,2,13,0.00
2014-4-28,65.4,52.9,42.5,43.0,38.0,33.0,80,59,32,30.14,30.01,7,2,11,0.00
2014-4-29,49.3,46.4,42.4,42.0,39.5,38.0,88,77,67,30.42,30.14,12,5,21,0.04
2014-4-30,53.9,45.1,40.8,53.0,43.3,38.0,98,93,83,30.41,29.97,12,5,21,4.44
2014-5-1,74.5,60.7,53.7,66.0,57.2,53.0,98,89,63,29.96,29.68,11,2,14,0.51
2014-5-2,69.5,61.3,51.9,58.0,44.4,36.0,94,57,33,29.84,29.69,13,2,15,0.01
2014-5-3,70.5,58.0,46.1,50.0,43.1,39.0,88,61,36,29.88,29.75,8,1,15,0.00
2014-5-4,64.6,57.8,51.9,50.0,40.2,28.0,90,55,31,29.78,29.63,12,3,18,0.01
2014-5-5,69.3,58.8,48.5,40.0,34.7,26.0,69,43,25,29.88,29.76,8,2,16,0.00
2014-5-6,69.0,57.8,47.2,40.0,34.5,29.0,65,44,26,30.06,29.86,6,1,16,0.00
2014-5-7,68.5,56.5,46.3,47.0,35.8,30.0,79,49,27,30.23,30.06,8,1,13,0.00
2014-5-8,57.2,54.6,51.9,56.0,52.1,44.0,96,91,66,30.19,30.09,3,0,5,0.40
2014-5-9,64.7,59.2,54.5,61.0,57.6,54.0,98,94,86,30.19,30.00,6,1,10,0.03
2014-5-10,81.0,65.8,53.8,67.0,60.5,53.0,98,84,58,30.00,29.82,6,1,15,0.10
2014-5-11,81.6,68.2,56.9,63.0,52.6,44.0,95,63,27,30.07,29.86,5,1,11,0.14
2014-5-12,84.5,67.7,53.9,62.0,56.6,52.0,93,70,40,30.11,30.03,9,1,12,0.00
2014-5-13,74.9,62.6,50.5,61.0,49.9,42.0,96,67,39,30.29,30.00,9,2,14,0.00
2014-5-14,69.0,57.4,48.8,59.0,52.1,45.0,95,83,66,30.31,30.24,6,1,10,0.00
2014-5-15,75.3,65.8,60.2,68.0,63.4,59.0,97,92,76,30.24,30.09,7,2,14,0.05
2014-5-16,69.0,63.5,61.0,66.0,59.9,-99.9,97,92,89,30.09,29.79,12,-18,21,0.72
2014-5-17,72.4,61.6,51.2,61.0,50.5,43.0,98,70,35,30.09,29.83,10,1,12,0.04
2014-5-18,68.1,58.6,47.2,44.0,40.4,36.0,86,53,36,30.18,30.09,10,1,12,0.00
2014-5-19,72.8,60.1,42.9,45.0,38.4,32.0,82,47,27,30.20,30.05,6,1,15,0.00
2014-5-20,80.5,64.9,52.1,51.0,43.4,36.0,71,50,21,30.11,29.95,5,1,12,0.00
2014-5-21,75.7,67.7,61.2,56.0,50.5,44.0,79,56,38,29.98,29.90,4,0,7,0.00
2014-5-22,61.4,59.0,57.1,58.0,56.2,54.0,96,90,79,29.89,29.81,5,1,8,0.46
2014-5-23,68.0,59.8,56.1,61.0,57.2,54.0,97,91,77,29.93,29.83,5,0,7,0.18
2014-5-24,68.3,60.1,55.1,56.0,54.6,52.0,97,83,62,30.08,29.90,4,1,9,0.03
2014-5-25,81.7,66.6,52.8,58.0,54.2,44.0,97,69,27,30.09,30.02,6,1,11,0.00
2014-5-26,88.3,73.8,56.0,57.0,54.3,51.0,96,56,29,30.04,29.87,9,2,18,0.00
2014-5-27,87.5,77.3,63.2,66.0,60.4,55.0,81,57,39,29.89,29.74,6,1,13,0.00
2014-5-28,72.6,57.0,52.7,63.0,52.2,46.0,92,84,73,30.17,29.79,6,1,17,0.00
2014-5-29,65.7,56.5,50.5,50.0,45.6,43.0,81,68,55,30.21,30.15,6,1,9,0.00
2014-5-30,74.2,62.7,53.3,58.0,51.8,45.0,94,69,50,30.16,29.98,5,1,10,0.17
2014-5-31,72.1,61.6,51.4,55.0,51.2,46.0,96,70,45,30.29,30.05,9,1,13,0.01
2014-6-1,78.6,64.4,48.1,50.0,44.7,37.0,92,55,25,30.35,30.25,5,1,8,0.00
2014-6-2,77.8,66.5,53.2,58.0,51.2,43.0,81,60,38,30.27,30.02,7,1,13,0.00
2014-6-3,85.6,71.7,59.1,70.0,61.2,56.0,90,72,50,30.03,29.82,7,1,10,0.04
2014-6-4,80.9,69.1,60.7,66.0,62.5,59.0,95,81,54,29.85,29.74,5,1,9,0.00
2014-6-5,76.3,66.5,60.7,64.0,60.1,52.0,96,81,55,29.79,29.62,6,1,13,0.59
2014-6-6,78.4,68.4,59.7,55.0,52.2,49.0,72,57,43,29.93,29.77,8,1,13,0.00
2014-6-7,84.0,70.3,55.6,58.0,55.2,53.0,91,62,35,29.99,29.91,5,1,12,0.00
2014-6-8,87.7,73.6,58.7,63.0,58.4,54.0,94,63,32,29.95,29.87,8,1,13,0.00
2014-6-9,68.3,65.7,61.1,66.0,63.1,59.0,96,91,75,29.96,29.89,3,0,7,0.98
2014-6-10,77.3,70.4,66.6,70.0,67.3,65.0,97,90,78,29.98,29.91,4,0,6,0.00
2014-6-11,70.1,65.4,60.4,67.0,60.2,57.0,95,84,66,30.10,29.98,12,2,16,0.03
2014-6-12,76.2,67.0,59.9,70.0,64.2,57.0,96,91,81,30.08,29.92,6,1,14,0.00
2014-6-13,82.1,70.2,66.6,74.0,68.2,66.0,98,94,75,29.91,29.72,6,1,8,1.27
2014-6-14,77.6,69.2,59.9,67.0,60.0,49.0,98,75,47,30.01,29.77,8,1,13,0.00
2014-6-15,81.0,68.9,58.0,59.0,55.2,51.0,82,64,44,30.08,30.01,12,1,12,0.00
2014-6-16,81.4,70.7,58.5,61.0,58.2,53.0,95,67,40,30.15,30.06,3,1,9,0.00
2014-6-17,88.1,76.1,65.9,72.0,68.2,62.0,94,78,57,30.07,29.88,6,1,10,0.00
2014-6-18,89.7,82.3,73.9,71.0,66.4,62.0,85,60,42,29.96,29.79,5,1,12,0.00
2014-6-19,77.9,72.1,67.5,68.0,65.6,62.0,92,80,70,30.01,29.93,8,1,11,0.01
2014-6-20,81.7,71.9,62.0,66.0,51.2,45.0,95,51,31,30.00,29.88,6,1,11,0.00
2014-6-21,78.1,69.0,60.3,56.0,50.3,46.0,83,53,38,29.97,29.89,7,1,8,0.00
2014-6-22,79.3,68.4,57.5,60.0,56.3,53.0,95,68,42,30.03,29.91,6,0,8,0.00
2014-6-23,84.7,71.3,57.7,65.0,58.6,55.0,97,68,40,30.16,30.03,6,1,10,0.00
2014-6-24,81.4,72.0,63.1,66.0,63.3,61.0,93,75,54,30.16,30.03,9,1,13,0.00
2014-6-25,84.8,74.3,68.5,75.0,70.0,65.0,96,87,71,30.03,29.84,7,1,12,0.00
2014-6-26,88.1,77.9,70.2,73.0,69.5,66.0,98,77,54,29.96,29.80,7,1,9,0.04
2014-6-27,83.0,72.8,64.5,65.0,61.5,57.0,85,69,46,30.21,29.97,6,1,12,0.00
2014-6-28,86.9,73.2,59.5,64.0,59.7,52.0,96,66,31,30.27,30.21,4,1,12,0.00
2014-6-29,82.0,72.4,60.6,66.0,60.8,55.0,96,70,45,30.26,30.12,6,1,9,0.00
2014-6-30,83.7,74.3,64.6,70.0,66.6,62.0,95,78,58,30.13,29.95,8,1,10,0.00
2014-7-1,87.7,77.3,69.4,75.0,69.6,66.0,93,78,63,29.96,29.83,12,2,16,0.00
2014-7-2,89.0,78.5,70.9,77.0,71.9,67.0,97,81,62,29.95,29.84,9,1,17,0.75
2014-7-3,88.4,77.7,69.5,76.0,72.8,68.0,98,86,64,30.02,29.88,9,1,18,0.25
2014-7-4,73.5,68.0,63.9,70.0,63.8,-99.9,98,89,68,29.98,29.87,8,-9,17,0.37
2014-7-5,83.9,73.1,61.6,56.0,52.7,51.0,71,51,33,30.13,29.98,6,2,12,0.00
2014-7-6,84.4,74.5,60.8,65.0,59.6,54.0,84,62,36,30.09,29.93,8,2,13,0.00
2014-7-7,88.4,78.2,68.6,70.0,66.7,63.0,83,69,53,29.94,29.74,8,2,12,0.00
2014-7-8,92.1,79.7,72.1,73.0,69.4,64.0,87,72,48,29.84,29.68,10,2,23,0.00
2014-7-9,87.4,77.6,70.5,73.0,68.0,62.0,88,73,44,29.94,29.77,11,2,17,0.00
2014-7-10,85.6,74.7,68.3,69.0,64.7,62.0,94,73,49,30.13,29.94,4,1,8,0.02
2014-7-11,86.8,75.2,67.8,67.0,62.7,56.0,91,67,40,30.21,30.11,9,1,9,0.00
2014-7-12,86.1,75.0,63.8,69.0,65.4,61.0,97,75,44,30.23,30.14,5,1,12,0.00
2014-7-13,81.4,73.8,69.2,73.0,70.0,68.0,94,88,74,30.14,29.91,12,2,15,0.00
2014-7-14,85.9,76.1,69.7,75.0,71.6,69.0,97,86,67,29.95,29.83,3,0,10,1.41
2014-7-15,87.7,73.7,70.0,77.0,71.6,69.0,98,93,71,29.83,29.73,4,0,10,1.10
2014-7-16,83.4,73.3,67.7,71.0,64.7,56.0,98,77,41,29.87,29.74,5,0,9,0.03
2014-7-17,83.7,72.2,62.4,63.0,60.3,57.0,91,69,43,30.09,29.87,4,0,7,0.00
2014-7-18,83.6,71.8,59.5,60.0,55.6,48.0,91,60,31,30.22,30.09,5,1,8,0.00
2014-7-19,79.9,70.5,63.8,63.0,59.7,56.0,90,70,48,30.24,30.17,4,0,9,0.00
2014-7-20,78.3,70.8,64.8,65.0,62.5,59.0,91,76,53,30.16,30.09,6,1,11,0.00
2014-7-21,85.7,72.1,60.8,67.0,63.4,60.0,97,76,46,30.19,30.12,4,1,9,0.00
2014-7-22,87.7,76.1,64.5,71.0,66.5,62.0,93,73,53,30.17,30.05,7,1,13,0.00
2014-7-23,87.8,78.1,69.7,76.0,69.7,62.0,90,76,67,30.04,29.77,13,2,15,0.00
2014-7-24,81.5,75.3,70.1,73.0,64.1,57.0,92,70,46,29.89,29.78,6,1,11,0.01
2014-7-25,84.7,73.7,63.7,66.0,58.9,55.0,87,62,38,30.02,29.89,6,1,10,0.00
2014-7-26,82.2,73.8,65.8,69.0,64.7,61.0,90,74,52,30.00,29.90,7,1,12,0.00
2014-7-27,85.8,77.2,69.0,75.0,71.1,67.0,95,82,66,29.90,29.65,8,1,13,0.00
2014-7-28,84.7,75.8,68.4,72.0,66.2,59.0,96,74,47,29.66,29.50,10,2,15,0.37
2014-7-29,78.5,70.1,61.8,59.0,55.4,51.0,82,61,42,29.96,29.66,5,1,11,0.00
2014-7-30,81.2,70.7,58.8,62.0,57.0,50.0,90,65,37,30.04,29.95,8,1,10,0.00
2014-7-31,83.7,72.9,60.6,69.0,62.7,57.0,96,73,48,30.14,30.04,7,1,12,0.00
2014-8-1,86.0,75.5,70.8,71.0,69.0,67.0,92,81,58,30.21,30.14,7,1,12,0.00
2014-8-2,74.8,68.2,63.5,68.0,64.6,61.0,95,88,73,30.19,30.09,8,1,11,0.48
2014-8-3,76.8,69.2,63.2,66.0,64.4,61.0,95,85,69,30.12,30.02,4,0,6,0.07
2014-8-4,84.6,75.4,67.5,71.0,68.7,66.0,96,81,61,30.06,30.02,6,1,11,0.00
2014-8-5,88.9,77.3,66.3,71.0,68.1,64.0,97,76,44,30.03,29.89,5,1,8,0.00
2014-8-6,85.4,74.9,66.5,70.0,63.5,58.0,89,70,42,29.90,29.82,4,1,8,0.00
2014-8-7,83.5,72.6,61.1,61.0,56.9,51.0,90,61,35,30.00,29.88,5,1,14,0.00
2014-8-8,82.5,71.3,58.7,64.0,57.1,53.0,90,64,37,30.08,30.00,3,0,8,0.00
2014-8-9,86.8,74.2,62.1,64.0,58.4,52.0,95,63,31,30.11,30.05,4,0,7,0.00
2014-8-10,89.7,75.7,62.9,66.0,61.3,56.0,92,65,34,30.13,30.07,4,1,9,0.00
2014-8-11,86.9,75.3,63.9,70.0,63.7,57.0,96,71,39,30.14,30.09,6,1,10,0.00
2014-8-12,79.9,73.7,69.8,71.0,68.1,66.0,94,83,70,30.09,29.86,10,2,17,0.17
2014-8-13,82.5,72.7,66.8,74.0,68.1,62.0,98,86,62,29.87,29.64,11,2,18,4.46
2014-8-14,79.5,71.5,62.8,61.0,55.0,51.0,76,58,38,29.88,29.76,5,1,14,0.00
2014-8-15,74.6,67.3,55.0,59.0,52.3,48.0,92,60,42,29.97,29.87,5,1,9,0.00
2014-8-16,78.6,69.4,55.5,64.0,57.1,52.0,94,67,43,30.01,29.91,9,1,15,0.00
2014-8-17,82.6,73.1,62.4,65.0,60.9,57.0,89,67,45,29.91,29.80,5,1,10,0.00
2014-8-18,81.8,69.9,57.4,64.0,58.6,55.0,93,70,44,29.91,29.81,6,0,9,0.00
2014-8-19,82.2,71.3,61.2,68.0,63.3,56.0,94,77,60,29.94,29.85,5,1,7,0.00
2014-8-20,83.9,73.2,63.4,68.0,63.0,59.0,97,73,45,30.02,29.92,4,0,9,0.00
2014-8-21,81.4,73.2,67.1,68.0,65.0,59.0,92,77,51,30.06,30.01,5,0,10,0.11
2014-8-22,79.2,70.5,64.8,68.0,63.2,58.0,96,78,59,30.05,29.99,4,1,9,0.06
2014-8-23,74.7,69.0,64.7,64.0,62.0,59.0,89,79,65,30.11,30.02,5,1,9,0.00
2014-8-24,79.6,68.7,58.9,62.0,60.2,57.0,96,76,46,30.15,30.10,5,1,11,0.00
2014-8-25,87.9,72.7,58.2,65.0,61.1,57.0,97,71,40,30.16,30.09,4,0,7,0.00
2014-8-26,87.1,75.3,64.8,72.0,66.9,63.0,96,77,54,30.16,30.07,3,0,10,0.00
2014-8-27,88.4,75.9,62.6,70.0,66.0,61.0,95,73,49,30.07,29.85,5,0,9,0.00
2014-8-28,81.9,74.0,66.4,70.0,59.6,52.0,89,63,40,30.04,29.83,10,2,11,0.00
2014-8-29,78.8,68.4,58.4,59.0,54.6,52.0,85,63,41,30.25,30.04,3,1,8,0.00
2014-8-30,79.8,70.2,58.9,68.0,61.8,56.0,93,76,54,30.27,30.15,6,1,10,0.00
2014-8-31,88.0,77.4,72.2,76.0,72.1,68.0,94,84,66,30.16,29.95,6,1,11,0.10
2014-9-1,88.8,79.3,73.1,76.0,73.0,71.0,95,82,58,30.00,29.92,6,1,10,0.00
2014-9-2,92.9,82.2,72.4,78.0,73.9,68.0,97,77,55,29.94,29.79,10,1,16,0.00
2014-9-3,86.5,77.3,67.9,70.0,63.5,57.0,91,64,38,30.09,29.80,5,1,15,0.00
2014-9-4,87.5,75.5,62.2,69.0,64.1,59.0,94,71,40,30.19,30.10,5,1,9,0.00
2014-9-5,86.1,77.5,70.0,75.0,72.2,69.0,95,84,66,30.17,30.02,7,1,10,0.00
2014-9-6,89.9,78.7,70.7,78.0,73.3,68.0,95,84,67,30.01,29.82,6,1,15,0.22
2014-9-7,80.2,70.4,63.3,67.0,59.2,52.0,91,70,47,30.18,29.92,6,1,11,0.00
2014-9-8,74.8,67.9,61.5,64.0,58.5,55.0,90,73,52,30.31,30.18,7,1,15,0.00
2014-9-9,73.2,67.4,62.6,64.0,59.4,54.0,84,76,69,30.27,30.14,8,1,11,0.00
2014-9-10,77.4,67.9,61.5,65.0,61.2,58.0,91,80,57,30.13,30.02,4,1,8,0.00
2014-9-11,82.8,73.3,65.1,73.0,67.9,62.0,93,83,68,30.02,29.81,8,1,15,0.00
2014-9-12,75.3,67.1,60.2,62.0,54.8,52.0,80,66,48,30.17,29.93,9,1,12,0.00
2014-9-13,67.7,63.1,59.7,62.0,57.8,53.0,96,83,69,30.18,30.08,9,1,19,0.34
2014-9-14,70.4,59.7,51.0,58.0,50.0,45.0,95,73,41,30.27,30.13,6,1,9,0.00
2014-9-15,72.9,60.9,51.7,53.0,49.7,45.0,89,69,40,30.23,30.08,4,0,8,0.00
2014-9-16,70.4,59.8,54.9,62.0,57.1,53.0,96,91,73,30.07,29.96,2,0,5,0.53
2014-9-17,74.6,60.8,49.7,57.0,50.8,44.0,98,74,37,30.06,29.95,4,0,8,0.01
2014-9-18,76.6,63.5,50.6,59.0,52.1,48.0,97,71,40,30.10,29.94,3,0,7,0.00
2014-9-19,66.3,59.5,53.8,53.0,49.1,44.0,86,69,52,30.38,30.10,6,1,11,0.00
2014-9-20,74.3,64.5,51.2,66.0,57.5,48.0,94,79,62,30.35,30.06,6,1,13,0.00
2014-9-21,77.6,71.2,66.1,72.0,68.3,65.0,98,90,78,30.05,29.59,4,0,6,0.11
2014-9-22,72.0,65.1,54.9,68.0,53.2,41.0,95,67,46,30.16,29.61,14,2,14,0.01
2014-9-23,71.4,58.5,44.3,53.0,46.9,41.0,94,68,44,30.41,30.16,6,0,8,0.00
2014-9-24,71.1,61.9,51.9,59.0,54.5,51.0,97,78,54,30.55,30.41,6,1,17,0.00
2014-9-25,62.3,60.7,57.8,59.0,56.5,53.0,94,86,74,30.47,30.20,6,2,16,0.34
2014-9-26,78.1,65.0,57.1,58.0,55.1,51.0,92,72,46,30.21,30.14,7,1,10,0.00
2014-9-27,83.7,67.9,56.1,62.0,58.1,54.0,95,74,43,30.21,30.15,5,0,7,0.00
2014-9-28,81.3,68.8,55.9,66.0,61.2,55.0,97,79,54,30.17,30.01,4,0,7,0.00
2014-9-29,78.9,68.3,61.2,66.0,63.1,60.0,96,84,60,30.00,29.89,2,0,5,0.00
2014-9-30,67.4,64.4,61.8,65.0,61.8,59.0,95,91,87,29.98,29.91,3,0,7,0.16
2014-10-1,63.4,61.4,59.6,60.0,59.1,58.0,97,92,87,30.07,29.96,6,1,7,0.04
2014-10-2,66.5,61.1,56.2,58.0,56.9,55.0,95,86,73,30.14,30.06,6,1,13,0.00
2014-10-3,70.9,60.7,51.2,57.0,54.1,50.0,96,80,53,30.12,29.86,6,1,11,0.00
2014-10-4,69.4,63.3,53.8,67.0,58.2,40.0,97,84,60,29.85,29.49,7,2,18,0.65
2014-10-5,62.1,52.3,43.5,41.0,37.4,34.0,88,58,40,30.00,29.68,6,1,11,0.00
2014-10-6,69.6,57.5,41.6,57.0,47.7,40.0,95,72,47,30.09,30.00,8,1,15,0.00
2014-10-7,73.4,67.0,63.3,63.0,60.8,56.0,91,81,57,30.06,29.93,8,2,13,0.02
2014-10-8,74.0,67.2,62.9,64.0,53.8,42.0,94,65,42,29.94,29.79,9,2,18,0.02
2014-10-9,68.3,59.9,46.9,48.0,42.8,39.0,90,56,35,30.05,29.94,10,2,14,0.00
2014-10-10,64.1,56.2,43.0,48.0,43.4,40.0,92,64,45,30.13,30.03,5,0,6,0.00
2014-10-11,57.6,52.6,45.4,53.0,49.1,44.0,96,88,65,30.16,30.02,6,0,12,0.49
2014-10-12,64.3,52.4,43.9,46.0,43.2,38.0,97,74,40,30.32,30.16,9,1,10,0.01
2014-10-13,66.1,56.9,42.9,61.0,52.6,41.0,96,86,66,30.34,30.24,2,0,7,0.03
2014-10-14,76.1,68.8,62.4,66.0,64.3,61.0,97,86,68,30.24,30.11,8,1,13,0.00
2014-10-15,76.2,71.1,67.8,69.0,67.4,65.0,94,88,79,30.11,29.85,9,2,15,0.19
2014-10-16,71.5,66.8,59.1,68.0,64.3,58.0,97,92,73,29.85,29.68,6,1,16,0.48
2014-10-17,72.4,63.8,56.5,60.0,56.9,54.0,97,79,54,29.74,29.65,7,1,15,0.00
2014-10-18,71.7,62.6,55.9,59.0,52.6,44.0,91,72,51,29.70,29.55,6,1,16,0.00
2014-10-19,56.0,51.4,42.4,46.0,37.0,29.0,72,59,41,30.05,29.70,8,2,16,0.00
2014-10-20,60.7,48.3,33.6,49.0,38.0,30.0,93,70,47,30.12,29.97,7,1,10,0.00
2014-10-21,66.5,56.1,49.4,59.0,51.5,46.0,95,85,57,29.97,29.82,5,0,7,0.10
2014-10-22,56.9,54.0,50.0,56.0,51.9,48.0,95,92,83,29.92,29.69,12,2,19,1.25
2014-10-23,52.5,50.9,49.2,49.0,47.9,47.0,94,89,81,29.75,29.65,11,3,17,0.26
2014-10-24,61.1,52.7,45.7,49.0,46.8,44.0,94,80,63,29.82,29.73,10,1,14,0.00
2014-10-25,68.1,55.4,42.4,50.0,45.1,40.0,96,71,44,29.86,29.55,6,1,12,0.00
2014-10-26,63.7,57.1,50.7,50.0,41.6,38.0,88,57,40,29.82,29.53,10,2,17,0.00
2014-10-27,65.7,54.5,45.9,44.0,40.4,38.0,89,61,38,30.03,29.82,9,1,11,0.00
2014-10-28,72.8,57.5,43.9,59.0,51.0,42.0,95,81,52,30.05,29.91,6,1,10,0.00
2014-10-29,73.2,60.5,50.8,62.0,55.0,44.0,97,84,48,29.94,29.80,4,0,12,0.06
2014-10-30,59.6,49.9,41.3,51.0,41.8,37.0,97,76,49,30.01,29.92,4,0,8,0.00
2014-10-31,55.5,49.1,41.4,47.0,41.7,37.0,93,76,62,30.01,29.85,5,1,15,0.02
2014-11-1,48.1,44.5,41.6,46.0,41.6,39.0,94,89,77,29.85,29.74,10,3,14,1.06
2014-11-2,49.1,43.1,39.8,40.0,29.6,21.0,93,61,42,30.02,29.71,17,4,27,0.03
2014-11-3,61.4,49.2,36.2,32.0,28.2,24.0,74,47,24,30.14,30.02,6,2,15,0.00
2014-11-4,68.3,57.8,48.4,49.0,37.3,25.0,77,49,25,30.16,30.02,4,1,9,0.00
2014-11-5,64.7,56.7,47.7,50.0,42.9,35.0,82,62,36,30.14,30.00,5,1,10,0.00
2014-11-6,53.0,49.7,47.4,52.0,47.9,42.0,96,93,73,30.12,29.57,1,0,5,0.44
2014-11-7,53.1,46.5,38.7,47.0,37.7,28.0,97,73,54,29.92,29.55,12,2,16,0.03
2014-11-8,47.4,42.0,31.9,35.0,29.3,26.0,83,62,47,30.04,29.92,10,1,12,0.00
2014-11-9,57.2,48.2,39.1,40.0,38.2,35.0,86,70,45,30.01,29.89,4,0,8,0.00
2014-11-10,61.3,46.7,33.9,46.0,37.9,32.0,96,75,41,30.18,30.01,4,0,7,0.00
2014-11-11,64.9,53.9,40.0,57.0,50.9,39.0,97,90,73,30.15,29.90,7,0,11,0.00
2014-11-12,66.2,57.1,42.9,60.0,52.5,36.0,98,85,64,30.07,29.86,5,1,11,0.00
2014-11-13,48.9,42.3,36.3,37.0,32.9,30.0,93,71,50,30.11,29.97,5,1,8,0.13
2014-11-14,43.3,37.9,34.5,36.0,26.2,17.0,94,66,37,30.17,29.94,8,1,13,0.05
2014-11-15,42.9,34.2,26.9,24.0,21.5,17.0,86,61,37,30.36,30.17,6,1,11,0.00
2014-11-16,43.6,37.6,26.3,36.0,28.0,23.0,88,70,50,30.39,30.11,5,0,7,0.01
2014-11-17,53.4,45.5,38.7,53.0,43.8,37.0,98,93,81,30.11,29.50,5,0,12,1.55
2014-11-18,44.5,31.6,23.6,39.0,13.1,4.0,81,48,31,30.10,29.58,16,3,20,0.00
2014-11-19,34.8,27.7,21.5,20.0,10.3,4.0,57,48,37,30.27,30.08,9,3,17,0.00
2014-11-20,46.7,39.4,31.0,27.0,20.7,11.0,56,48,33,30.07,29.84,11,3,16,0.00
2014-11-21,36.8,30.7,25.6,14.0,11.6,9.0,62,46,35,30.50,30.02,11,3,18,0.00
2014-11-22,42.9,34.6,21.6,26.0,18.8,14.0,79,54,38,30.50,30.20,13,2,15,0.00
2014-11-23,54.4,47.0,42.1,51.0,32.8,26.0,95,60,38,30.21,30.00,5,1,11,0.00
2014-11-24,63.9,59.8,53.2,61.0,57.5,52.0,97,92,82,29.99,29.59,11,3,21,0.51
2014-11-25,63.8,54.1,47.8,58.0,40.8,30.0,96,63,38,30.16,29.73,8,1,11,0.00
2014-11-26,49.5,37.9,32.9,37.0,32.1,30.0,95,77,50,30.20,29.71,13,2,17,1.25
2014-11-27,38.0,27.6,33.8,34.0,23.9,28.0,95,63,74,30.05,29.81,5,1,11,0.01
2014-11-28,37.5,25.7,25.3,28.0,15.9,14.0,82,48,52,30.27,30.04,9,2,14,0.00
2014-11-29,44.9,30.0,22.2,38.0,20.1,15.0,84,54,47,30.36,30.22,8,0,11,0.00
2014-11-30,52.7,41.1,44.6,46.0,33.6,35.0,86,59,53,30.21,30.07,10,2,14,0.00
2014-12-1,63.3,40.1,40.8,50.0,33.7,30.0,89,56,61,30.44,30.06,6,1,12,0.08
2014-12-2,44.9,31.4,35.1,44.0,26.3,24.0,95,61,58,30.62,30.28,8,2,14,0.20
2014-12-3,47.1,32.3,40.6,46.0,29.7,30.0,97,63,66,30.26,29.96,6,2,14,0.12
2014-12-4,45.6,30.2,35.6,29.0,18.6,22.0,72,41,41,30.52,30.20,5,1,10,0.00
2014-12-5,47.9,33.7,34.4,47.0,29.1,24.0,96,63,63,30.58,30.33,11,1,13,0.55
2014-12-6,50.8,31.9,39.7,50.0,31.2,38.0,97,66,93,30.33,30.08,7,1,17,1.10
2014-12-7,42.0,25.1,29.0,38.0,12.8,8.0,93,34,39,30.60,30.16,11,2,17,0.02
2014-12-8,35.8,23.6,26.1,32.0,18.1,8.0,87,58,42,30.66,30.33,8,2,14,0.00
2014-12-9,44.9,16.5,36.3,44.0,15.9,33.0,97,38,87,30.32,29.59,11,2,20,0.53
2014-12-10,38.5,22.3,31.8,37.0,20.6,26.0,94,58,75,29.66,29.55,8,2,14,0.10
2014-12-11,37.3,27.0,31.9,29.0,20.8,24.0,81,57,61,29.86,29.59,7,2,14,0.00
2014-12-12,38.3,26.1,32.1,26.0,18.6,23.0,75,51,60,29.98,29.86,10,2,13,0.00
2014-12-13,44.5,29.6,31.3,31.0,22.0,25.0,79,53,51,29.97,29.87,6,1,12,0.00
2014-12-14,44.7,31.2,31.3,34.0,25.3,29.0,91,59,66,29.97,29.85,7,1,11,0.00
2014-12-15,46.8,30.1,28.6,34.0,25.6,27.0,96,65,61,30.12,29.97,8,0,8,0.00
2014-12-16,49.6,34.0,30.4,46.0,31.6,29.0,96,69,76,30.11,29.82,3,0,9,0.29
2014-12-17,53.0,38.0,41.9,45.0,32.1,31.0,97,61,64,29.88,29.78,7,2,14,0.02
2014-12-18,42.4,30.3,35.8,31.0,21.4,25.0,74,49,55,29.98,29.85,8,2,19,0.00
2014-12-19,38.5,27.3,31.3,29.0,18.9,22.0,74,51,55,30.19,29.95,6,1,12,0.00
2014-12-20,32.5,24.4,29.4,24.0,18.0,22.0,75,55,68,30.30,30.18,5,0,7,0.00
2014-12-21,35.4,26.7,31.1,33.0,23.2,24.0,90,65,72,30.33,30.26,3,0,8,0.00
2014-12-22,45.7,31.9,34.9,44.0,29.5,32.0,95,65,82,30.33,30.13,8,1,13,0.02
2014-12-23,48.1,31.4,45.0,46.0,30.5,43.0,97,65,93,30.16,30.05,10,1,12,0.06
2014-12-24,57.6,22.5,44.3,57.0,21.7,43.0,98,43,96,30.07,29.54,6,0,11,0.88
2014-12-25,53.4,29.9,43.9,43.0,20.4,31.0,77,34,44,30.11,29.50,16,3,21,0.00
2014-12-26,50.3,35.5,37.7,34.0,26.3,31.0,80,53,49,30.24,30.12,6,1,12,0.00
2014-12-27,55.9,35.5,33.9,39.0,28.3,30.0,89,56,50,30.26,30.08,3,0,6,0.00
2014-12-28,52.6,35.7,42.1,45.0,30.7,32.0,93,60,67,30.06,29.86,5,1,14,0.02
2014-12-29,44.5,29.6,32.5,32.0,18.7,20.0,70,43,40,30.25,30.05,4,0,9,0.00
2014-12-30,32.5,23.7,24.1,24.0,13.1,12.0,76,47,50,30.40,30.25,6,1,9,0.00
2014-12-31,32.7,23.0,23.8,16.0,9.3,9.0,64,39,40,30.36,30.18,10,2,13,0.00
2015-1-1,38.5,27.8,25.1,23.0,12.5,9.0,60,39,34,30.19,29.98,13,3,19,0.00
2015-1-2,43.0,30.5,33.1,24.0,16.9,20.0,68,41,41,30.45,30.02,12,2,16,0.00